Abraham, Utah
Current Conditions -  °F | °C
As of 12:55 AM on Friday 19 Dec 2014 (Local Time) from KDTA Reporting Station
Clear Clear  
Wind Chill: 20°   Ceiling: Unl
Heat Index: 25°   Visibility: 10mi
Dew Point: 24°   Wind: 5mph
Humidity: 94%   Direction: 230°SW
Pressure: 30.18"   Gusts: NA
Location:  39.4463°N, 112.85°W
Report Text: KDTA 190755Z AUTO 23004KT 10SM CLR M04/M05 A3018 RMK AO1 T10371046
Loading
Personal Weather Stations






























Interactive Weather Map New forecast layout! Learn more

10-Day Weather Forecast

Advertisements
Track Severe Weather on mobile